sensor_id;sensor_type;location;lat;lon;timestamp;pressure;altitude;pressure_sealevel;temperature;humidity
31761;BME280;18335;51.486;7.562;2024-02-28T00:02:19;100585.19;;;1.58;100.00
31761;BME280;18335;51.486;7.562;2024-02-28T00:04:47;100591.19;;;1.61;100.00
31761;BME280;18335;51.486;7.562;2024-02-28T00:07:14;100601.00;;;1.22;100.00
31761;BME280;18335;51.486;7.562;2024-02-28T00:09:41;100601.28;;;1.31;100.00
31761;BME280;18335;51.486;7.562;2024-02-28T00:12:07;100590.50;;;1.45;100.00
31761;BME280;18335;51.486;7.562;2024-02-28T00:14:35;100592.38;;;1.57;100.00
31761;BME280;18335;51.486;7.562;2024-02-28T00:17:02;100607.28;;;1.49;100.00
31761;BME280;18335;51.486;7.562;2024-02-28T00:19:29;100601.13;;;1.47;100.00
31761;BME280;18335;51.486;7.562;2024-02-28T00:21:57;100597.28;;;1.51;100.00
31761;BME280;18335;51.486;7.562;2024-02-28T00:24:25;100599.47;;;1.58;100.00
31761;BME280;18335;51.486;7.562;2024-02-28T00:26:52;100600.34;;;1.59;100.00
31761;BME280;18335;51.486;7.562;2024-02-28T00:29:19;100610.72;;;1.51;100.00
31761;BME280;18335;51.486;7.562;2024-02-28T00:31:45;100612.31;;;1.67;100.00
31761;BME280;18335;51.486;7.562;2024-02-28T00:34:12;100614.25;;;1.92;100.00
31761;BME280;18335;51.486;7.562;2024-02-28T00:36:39;100608.22;;;1.89;100.00
31761;BME280;18335;51.486;7.562;2024-02-28T00:39:07;100613.03;;;2.10;100.00
31761;BME280;18335;51.486;7.562;2024-02-28T00:41:34;100619.16;;;2.12;100.00
31761;BME280;18335;51.486;7.562;2024-02-28T00:44:02;100619.06;;;2.14;100.00
31761;BME280;18335;51.486;7.562;2024-02-28T00:46:28;100626.56;;;1.96;100.00
31761;BME280;18335;51.486;7.562;2024-02-28T00:48:55;100623.47;;;2.02;100.00
31761;BME280;18335;51.486;7.562;2024-02-28T00:51:22;100619.53;;;2.33;100.00
31761;BME280;18335;51.486;7.562;2024-02-28T00:53:49;100626.47;;;2.50;100.00
31761;BME280;18335;51.486;7.562;2024-02-28T00:56:17;100619.53;;;2.33;100.00
31761;BME280;18335;51.486;7.562;2024-02-28T00:58:44;100624.97;;;2.46;100.00
31761;BME280;18335;51.486;7.562;2024-02-28T01:01:11;100626.47;;;2.50;100.00
31761;BME280;18335;51.486;7.562;2024-02-28T01:03:38;100625.53;;;2.63;100.00
31761;BME280;18335;51.486;7.562;2024-02-28T01:06:05;100626.50;;;2.62;100.00
31761;BME280;18335;51.486;7.562;2024-02-28T01:08:31;100621.53;;;2.69;100.00
31761;BME280;18335;51.486;7.562;2024-02-28T01:10:58;100626.09;;;2.68;100.00
31761;BME280;18335;51.486;7.562;2024-02-28T01:13:26;100615.72;;;2.50;100.00
31761;BME280;18335;51.486;7.562;2024-02-28T01:15:53;100619.47;;;2.60;100.00
31761;BME280;18335;51.486;7.562;2024-02-28T01:18:20;100612.50;;;2.70;100.00
31761;BME280;18335;51.486;7.562;2024-02-28T01:20:46;100610.41;;;2.48;100.00
31761;BME280;18335;51.486;7.562;2024-02-28T01:23:13;100604.69;;;2.40;100.00
31761;BME280;18335;51.486;7.562;2024-02-28T01:25:40;100606.09;;;2.46;100.00
31761;BME280;18335;51.486;7.562;2024-02-28T01:28:07;100607.09;;;2.45;100.00
31761;BME280;18335;51.486;7.562;2024-02-28T01:30:35;100600.16;;;2.28;100.00
31761;BME280;18335;51.486;7.562;2024-02-28T01:33:02;100604.03;;;2.37;100.00
31761;BME280;18335;51.486;7.562;2024-02-28T01:35:28;100601.81;;;2.43;100.00
31761;BME280;18335;51.486;7.562;2024-02-28T01:37:55;100602.13;;;2.51;100.00
31761;BME280;18335;51.486;7.562;2024-02-28T01:40:22;100595.25;;;2.47;100.00
31761;BME280;18335;51.486;7.562;2024-02-28T01:42:48;100596.13;;;2.48;100.00
31761;BME280;18335;51.486;7.562;2024-02-28T01:45:16;100578.13;;;2.61;100.00
31761;BME280;18335;51.486;7.562;2024-02-28T01:47:44;100581.47;;;2.64;100.00
31761;BME280;18335;51.486;7.562;2024-02-28T01:50:11;100585.75;;;2.67;100.00
31761;BME280;18335;51.486;7.562;2024-02-28T01:52:39;100592.13;;;2.66;100.00
31761;BME280;18335;51.486;7.562;2024-02-28T01:55:07;100581.47;;;2.77;100.00
31761;BME280;18335;51.486;7.562;2024-02-28T01:57:36;100583.09;;;2.79;100.00
31761;BME280;18335;51.486;7.562;2024-02-28T02:00:04;100587.91;;;2.87;100.00
31761;BME280;18335;51.486;7.562;2024-02-28T02:02:31;100590.81;;;2.84;100.00
31761;BME280;18335;51.486;7.562;2024-02-28T02:04:59;100590.38;;;3.03;100.00
31761;BME280;18335;51.486;7.562;2024-02-28T02:07:26;100596.66;;;3.03;100.00
31761;BME280;18335;51.486;7.562;2024-02-28T02:09:54;100604.09;;;2.87;100.00
31761;BME280;18335;51.486;7.562;2024-02-28T02:12:21;100596.44;;;2.68;100.00
31761;BME280;18335;51.486;7.562;2024-02-28T02:14:48;100603.66;;;3.06;100.00
31761;BME280;18335;51.486;7.562;2024-02-28T02:17:15;100603.44;;;3.21;100.00
31761;BME280;18335;51.486;7.562;2024-02-28T02:19:42;100598.47;;;3.03;100.00
31761;BME280;18335;51.486;7.562;2024-02-28T02:22:13;100600.44;;;3.01;100.00
31761;BME280;18335;51.486;7.562;2024-02-28T02:24:41;100600.66;;;2.98;100.00
31761;BME280;18335;51.486;7.562;2024-02-28T02:27:08;100598.47;;;3.03;100.00
31761;BME280;18335;51.486;7.562;2024-02-28T02:29:34;100598.03;;;2.96;100.00
31761;BME280;18335;51.486;7.562;2024-02-28T02:32:01;100591.91;;;2.94;100.00
31761;BME280;18335;51.486;7.562;2024-02-28T02:34:28;100600.66;;;2.85;100.00
31761;BME280;18335;51.486;7.562;2024-02-28T02:36:54;100591.38;;;2.89;100.00
31761;BME280;18335;51.486;7.562;2024-02-28T02:39:21;100596.34;;;2.95;100.00
31761;BME280;18335;51.486;7.562;2024-02-28T02:41:49;100602.81;;;2.80;100.00
31761;BME280;18335;51.486;7.562;2024-02-28T02:44:16;100599.34;;;2.65;100.00
31761;BME280;18335;51.486;7.562;2024-02-28T02:46:43;100604.97;;;2.62;100.00
31761;BME280;18335;51.486;7.562;2024-02-28T02:49:09;100607.59;;;2.37;100.00
31761;BME280;18335;51.486;7.562;2024-02-28T02:51:36;100597.50;;;2.41;100.00
31761;BME280;18335;51.486;7.562;2024-02-28T02:54:03;100594.78;;;2.41;100.00
31761;BME280;18335;51.486;7.562;2024-02-28T02:56:30;100602.34;;;2.36;100.00
31761;BME280;18335;51.486;7.562;2024-02-28T02:58:58;100604.63;;;2.42;100.00
31761;BME280;18335;51.486;7.562;2024-02-28T03:01:24;100614.19;;;2.46;100.00
31761;BME280;18335;51.486;7.562;2024-02-28T03:03:51;100611.69;;;2.43;100.00
31761;BME280;18335;51.486;7.562;2024-02-28T03:06:18;100609.66;;;2.46;100.00
31761;BME280;18335;51.486;7.562;2024-02-28T03:08:44;100618.88;;;2.17;100.00
31761;BME280;18335;51.486;7.562;2024-02-28T03:11:11;100616.38;;;2.14;100.00
31761;BME280;18335;51.486;7.562;2024-02-28T03:13:38;100621.31;;;1.81;100.00
31761;BME280;18335;51.486;7.562;2024-02-28T03:16:06;100621.31;;;2.07;100.00
31761;BME280;18335;51.486;7.562;2024-02-28T03:18:33;100615.38;;;2.02;100.00
31761;BME280;18335;51.486;7.562;2024-02-28T03:21:00;100621.00;;;1.85;100.00
31761;BME280;18335;51.486;7.562;2024-02-28T03:23:27;100626.16;;;2.02;100.00
31761;BME280;18335;51.486;7.562;2024-02-28T03:25:54;100622.66;;;2.00;100.00
31761;BME280;18335;51.486;7.562;2024-02-28T03:28:20;100626.34;;;1.99;100.00
31761;BME280;18335;51.486;7.562;2024-02-28T03:30:47;100637.66;;;2.04;100.00
31761;BME280;18335;51.486;7.562;2024-02-28T03:33:15;100635.44;;;2.11;100.00
31761;BME280;18335;51.486;7.562;2024-02-28T03:35:42;100643.56;;;2.23;100.00
31761;BME280;18335;51.486;7.562;2024-02-28T03:38:09;100637.13;;;2.39;100.00
31761;BME280;18335;51.486;7.562;2024-02-28T03:40:36;100642.44;;;2.53;100.00
31761;BME280;18335;51.486;7.562;2024-02-28T03:43:03;100637.38;;;2.61;100.00
31761;BME280;18335;51.486;7.562;2024-02-28T03:45:30;100642.25;;;2.68;100.00
31761;BME280;18335;51.486;7.562;2024-02-28T03:47:57;100641.69;;;2.76;100.00
31761;BME280;18335;51.486;7.562;2024-02-28T03:50:25;100642.44;;;2.78;100.00
31761;BME280;18335;51.486;7.562;2024-02-28T03:52:51;100656.06;;;2.89;100.00
31761;BME280;18335;51.486;7.562;2024-02-28T03:55:18;100659.16;;;2.96;100.00
31761;BME280;18335;51.486;7.562;2024-02-28T03:57:47;100655.19;;;2.89;100.00
31761;BME280;18335;51.486;7.562;2024-02-28T04:00:14;100649.91;;;2.87;100.00
31761;BME280;18335;51.486;7.562;2024-02-28T04:02:41;100648.50;;;2.94;100.00
31761;BME280;18335;51.486;7.562;2024-02-28T04:05:08;100650.03;;;2.98;100.00
31761;BME280;18335;51.486;7.562;2024-02-28T04:07:36;100656.59;;;2.94;100.00
31761;BME280;18335;51.486;7.562;2024-02-28T04:10:04;100651.84;;;2.85;100.00
31761;BME280;18335;51.486;7.562;2024-02-28T04:12:31;100643.66;;;2.99;100.00
31761;BME280;18335;51.486;7.562;2024-02-28T04:14:58;100652.19;;;3.06;100.00
31761;BME280;18335;51.486;7.562;2024-02-28T04:17:25;100654.34;;;3.13;100.00
31761;BME280;18335;51.486;7.562;2024-02-28T04:19:52;100645.69;;;2.96;100.00
31761;BME280;18335;51.486;7.562;2024-02-28T04:22:18;100651.72;;;2.99;100.00
31761;BME280;18335;51.486;7.562;2024-02-28T04:24:46;100655.00;;;3.04;100.00
31761;BME280;18335;51.486;7.562;2024-02-28T04:27:13;100657.03;;;3.13;100.00
31761;BME280;18335;51.486;7.562;2024-02-28T04:29:40;100664.47;;;2.97;100.00
31761;BME280;18335;51.486;7.562;2024-02-28T04:32:07;100656.38;;;2.97;100.00
31761;BME280;18335;51.486;7.562;2024-02-28T04:34:36;100662.97;;;3.18;100.00
31761;BME280;18335;51.486;7.562;2024-02-28T04:37:02;100666.75;;;3.28;100.00
31761;BME280;18335;51.486;7.562;2024-02-28T04:39:29;100662.09;;;3.30;100.00
31761;BME280;18335;51.486;7.562;2024-02-28T04:41:56;100668.78;;;3.12;100.00
31761;BME280;18335;51.486;7.562;2024-02-28T04:44:23;100674.78;;;3.41;100.00
31761;BME280;18335;51.486;7.562;2024-02-28T04:46:50;100678.06;;;3.21;100.00
31761;BME280;18335;51.486;7.562;2024-02-28T04:49:16;100684.41;;;3.32;100.00
31761;BME280;18335;51.486;7.562;2024-02-28T04:51:43;100688.41;;;3.27;100.00
31761;BME280;18335;51.486;7.562;2024-02-28T04:54:10;100692.63;;;3.31;100.00
31761;BME280;18335;51.486;7.562;2024-02-28T04:56:39;100694.44;;;3.30;100.00
31761;BME280;18335;51.486;7.562;2024-02-28T04:59:07;100695.09;;;3.34;100.00
31761;BME280;18335;51.486;7.562;2024-02-28T05:01:34;100690.78;;;3.31;100.00
31761;BME280;18335;51.486;7.562;2024-02-28T05:04:05;100691.31;;;3.37;100.00
31761;BME280;18335;51.486;7.562;2024-02-28T05:06:32;100694.78;;;3.13;100.00
31761;BME280;18335;51.486;7.562;2024-02-28T05:08:58;100699.63;;;3.33;100.00
31761;BME280;18335;51.486;7.562;2024-02-28T05:11:25;100702.28;;;2.96;100.00
31761;BME280;18335;51.486;7.562;2024-02-28T05:13:52;100710.19;;;3.37;100.00
31761;BME280;18335;51.486;7.562;2024-02-28T05:16:20;100711.50;;;3.31;100.00
31761;BME280;18335;51.486;7.562;2024-02-28T05:18:47;100709.53;;;2.95;100.00
31761;BME280;18335;51.486;7.562;2024-02-28T05:21:14;100717.75;;;3.06;100.00
31761;BME280;18335;51.486;7.562;2024-02-28T05:23:41;100717.81;;;3.05;100.00
31761;BME280;18335;51.486;7.562;2024-02-28T05:26:07;100724.22;;;3.16;100.00
31761;BME280;18335;51.486;7.562;2024-02-28T05:28:34;100723.03;;;3.33;100.00
31761;BME280;18335;51.486;7.562;2024-02-28T05:31:02;100727.88;;;3.15;100.00
31761;BME280;18335;51.486;7.562;2024-02-28T05:33:30;100737.38;;;3.33;100.00
31761;BME280;18335;51.486;7.562;2024-02-28T05:35:56;100739.56;;;3.28;100.00
31761;BME280;18335;51.486;7.562;2024-02-28T05:38:23;100745.34;;;3.35;100.00
31761;BME280;18335;51.486;7.562;2024-02-28T05:40:50;100734.34;;;3.76;100.00
31761;BME280;18335;51.486;7.562;2024-02-28T05:43:17;100727.56;;;4.54;100.00
31761;BME280;18335;51.486;7.562;2024-02-28T05:45:44;100735.63;;;3.70;100.00
31761;BME280;18335;51.486;7.562;2024-02-28T05:48:11;100730.91;;;3.61;100.00
31761;BME280;18335;51.486;7.562;2024-02-28T05:50:39;100742.09;;;3.68;100.00
31761;BME280;18335;51.486;7.562;2024-02-28T05:53:05;100740.72;;;3.62;100.00
31761;BME280;18335;51.486;7.562;2024-02-28T05:55:32;100734.34;;;3.51;100.00
31761;BME280;18335;51.486;7.562;2024-02-28T05:57:58;100737.06;;;3.38;100.00
31761;BME280;18335;51.486;7.562;2024-02-28T06:00:26;100740.19;;;3.57;100.00
31761;BME280;18335;51.486;7.562;2024-02-28T06:02:53;100745.78;;;3.54;100.00
31761;BME280;18335;51.486;7.562;2024-02-28T06:05:20;100743.84;;;3.69;100.00
31761;BME280;18335;51.486;7.562;2024-02-28T06:07:48;100741.00;;;3.83;100.00
31761;BME280;18335;51.486;7.562;2024-02-28T06:10:15;100737.91;;;3.64;100.00
31761;BME280;18335;51.486;7.562;2024-02-28T06:12:42;100740.50;;;3.53;100.00
31761;BME280;18335;51.486;7.562;2024-02-28T06:15:09;100748.28;;;3.70;100.00
31761;BME280;18335;51.486;7.562;2024-02-28T06:17:36;100748.38;;;3.56;100.00
31761;BME280;18335;51.486;7.562;2024-02-28T06:20:03;100755.94;;;3.51;100.00
31761;BME280;18335;51.486;7.562;2024-02-28T06:22:30;100762.84;;;3.55;100.00
31761;BME280;18335;51.486;7.562;2024-02-28T06:24:58;100765.63;;;3.53;100.00
31761;BME280;18335;51.486;7.562;2024-02-28T06:27:25;100763.16;;;3.38;100.00
31761;BME280;18335;51.486;7.562;2024-02-28T06:29:52;100767.38;;;3.54;100.00
31761;BME280;18335;51.486;7.562;2024-02-28T06:32:18;100770.63;;;3.34;100.00
31761;BME280;18335;51.486;7.562;2024-02-28T06:34:45;100771.03;;;3.41;100.00
31761;BME280;18335;51.486;7.562;2024-02-28T06:37:12;100779.47;;;3.36;100.00
31761;BME280;18335;51.486;7.562;2024-02-28T06:39:39;100779.88;;;3.30;100.00
31761;BME280;18335;51.486;7.562;2024-02-28T06:42:07;100778.16;;;3.29;100.00
31761;BME280;18335;51.486;7.562;2024-02-28T06:44:34;100777.41;;;3.40;100.00
31761;BME280;18335;51.486;7.562;2024-02-28T06:47:01;100782.69;;;3.28;100.00
31761;BME280;18335;51.486;7.562;2024-02-28T06:49:28;100781.19;;;3.37;100.00
31761;BME280;18335;51.486;7.562;2024-02-28T06:51:54;100778.69;;;3.21;100.00
31761;BME280;18335;51.486;7.562;2024-02-28T06:54:23;100775.25;;;3.32;100.00
31761;BME280;18335;51.486;7.562;2024-02-28T06:56:50;100783.47;;;3.43;100.00
31761;BME280;18335;51.486;7.562;2024-02-28T06:59:18;100777.84;;;3.59;100.00
31761;BME280;18335;51.486;7.562;2024-02-28T07:01:45;100791.97;;;3.50;100.00
31761;BME280;18335;51.486;7.562;2024-02-28T07:04:11;100790.03;;;3.52;100.00
31761;BME280;18335;51.486;7.562;2024-02-28T07:06:38;100786.78;;;3.47;100.00
31761;BME280;18335;51.486;7.562;2024-02-28T07:09:07;100787.88;;;3.44;100.00
31761;BME280;18335;51.486;7.562;2024-02-28T07:11:34;100789.06;;;3.53;100.00
31761;BME280;18335;51.486;7.562;2024-02-28T07:14:01;100788.94;;;3.42;100.00
31761;BME280;18335;51.486;7.562;2024-02-28T07:16:29;100777.66;;;3.49;100.00
31761;BME280;18335;51.486;7.562;2024-02-28T07:18:58;100784.22;;;3.45;100.00
31761;BME280;18335;51.486;7.562;2024-02-28T07:21:24;100783.34;;;3.45;100.00
31761;BME280;18335;51.486;7.562;2024-02-28T07:23:51;100777.84;;;3.46;100.00
31761;BME280;18335;51.486;7.562;2024-02-28T07:26:18;100780.22;;;3.51;100.00
31761;BME280;18335;51.486;7.562;2024-02-28T07:28:44;100785.63;;;3.51;100.00
31761;BME280;18335;51.486;7.562;2024-02-28T07:31:14;100786.34;;;3.53;100.00
31761;BME280;18335;51.486;7.562;2024-02-28T07:33:43;100782.91;;;3.63;100.00
31761;BME280;18335;51.486;7.562;2024-02-28T07:36:09;100788.53;;;3.73;100.00
31761;BME280;18335;51.486;7.562;2024-02-28T07:38:36;100783.44;;;3.68;100.00
31761;BME280;18335;51.486;7.562;2024-02-28T07:41:03;100789.19;;;3.64;100.00
31761;BME280;18335;51.486;7.562;2024-02-28T07:43:30;100789.72;;;3.69;100.00
31761;BME280;18335;51.486;7.562;2024-02-28T07:46:02;100791.75;;;3.90;100.00
31761;BME280;18335;51.486;7.562;2024-02-28T07:48:29;100790.88;;;3.90;100.00
31761;BME280;18335;51.486;7.562;2024-02-28T07:50:57;100793.88;;;3.98;100.00
31761;BME280;18335;51.486;7.562;2024-02-28T07:53:24;100790.97;;;4.01;100.00
31761;BME280;18335;51.486;7.562;2024-02-28T07:55:50;100794.53;;;4.02;100.00
31761;BME280;18335;51.486;7.562;2024-02-28T07:58:17;100799.78;;;4.16;100.00
31761;BME280;18335;51.486;7.562;2024-02-28T08:00:44;100803.00;;;4.33;100.00
31761;BME280;18335;51.486;7.562;2024-02-28T08:03:11;100805.59;;;4.35;100.00
31761;BME280;18335;51.486;7.562;2024-02-28T08:05:37;100798.38;;;4.59;100.00
31761;BME280;18335;51.486;7.562;2024-02-28T08:08:06;100798.72;;;4.55;100.00
31761;BME280;18335;51.486;7.562;2024-02-28T08:10:33;100795.19;;;4.78;100.00
31761;BME280;18335;51.486;7.562;2024-02-28T08:13:00;100800.31;;;4.81;100.00
31761;BME280;18335;51.486;7.562;2024-02-28T08:15:27;100802.34;;;4.66;100.00
31761;BME280;18335;51.486;7.562;2024-02-28T08:17:54;100810.31;;;5.15;100.00
31761;BME280;18335;51.486;7.562;2024-02-28T08:20:21;100819.16;;;5.17;100.00
31761;BME280;18335;51.486;7.562;2024-02-28T08:22:48;100821.63;;;5.20;100.00
31761;BME280;18335;51.486;7.562;2024-02-28T08:25:16;100823.00;;;5.49;100.00
31761;BME280;18335;51.486;7.562;2024-02-28T08:27:42;100829.13;;;5.51;100.00
31761;BME280;18335;51.486;7.562;2024-02-28T08:30:10;100835.53;;;5.62;100.00
31761;BME280;18335;51.486;7.562;2024-02-28T08:32:36;100840.75;;;5.76;100.00
31761;BME280;18335;51.486;7.562;2024-02-28T08:35:06;100838.53;;;5.70;100.00
31761;BME280;18335;51.486;7.562;2024-02-28T08:37:33;100841.00;;;5.84;100.00
31761;BME280;18335;51.486;7.562;2024-02-28T08:40:00;100829.41;;;5.71;100.00
31761;BME280;18335;51.486;7.562;2024-02-28T08:42:28;100837.88;;;6.12;100.00
31761;BME280;18335;51.486;7.562;2024-02-28T08:44:54;100837.63;;;6.15;100.00
31761;BME280;18335;51.486;7.562;2024-02-28T08:47:22;100839.84;;;6.21;100.00
31761;BME280;18335;51.486;7.562;2024-02-28T08:49:49;100837.25;;;6.08;100.00
31761;BME280;18335;51.486;7.562;2024-02-28T08:52:16;100839.59;;;6.24;100.00
31761;BME280;18335;51.486;7.562;2024-02-28T08:54:42;100846.09;;;6.22;100.00
31761;BME280;18335;51.486;7.562;2024-02-28T08:57:09;100847.22;;;6.52;100.00
31761;BME280;18335;51.486;7.562;2024-02-28T08:59:37;100854.34;;;5.87;100.00
31761;BME280;18335;51.486;7.562;2024-02-28T09:02:05;100855.34;;;5.97;100.00
31761;BME280;18335;51.486;7.562;2024-02-28T09:04:32;100847.78;;;5.78;100.00
31761;BME280;18335;51.486;7.562;2024-02-28T09:06:59;100858.06;;;6.30;100.00
31761;BME280;18335;51.486;7.562;2024-02-28T09:09:26;100861.03;;;6.38;100.00
31761;BME280;18335;51.486;7.562;2024-02-28T09:11:53;100860.25;;;6.69;100.00
31761;BME280;18335;51.486;7.562;2024-02-28T09:14:20;100853.19;;;6.78;100.00
31761;BME280;18335;51.486;7.562;2024-02-28T09:16:48;100853.19;;;6.89;100.00
31761;BME280;18335;51.486;7.562;2024-02-28T09:19:14;100847.19;;;6.63;100.00
31761;BME280;18335;51.486;7.562;2024-02-28T09:21:42;100853.59;;;6.74;100.00
31761;BME280;18335;51.486;7.562;2024-02-28T09:24:09;100845.69;;;6.71;100.00
31761;BME280;18335;51.486;7.562;2024-02-28T09:26:38;100854.66;;;6.82;100.00
31761;BME280;18335;51.486;7.562;2024-02-28T09:29:05;100856.13;;;6.97;100.00
31761;BME280;18335;51.486;7.562;2024-02-28T09:31:31;100862.00;;;7.13;100.00
31761;BME280;18335;51.486;7.562;2024-02-28T09:33:59;100863.94;;;6.80;100.00
31761;BME280;18335;51.486;7.562;2024-02-28T09:36:29;100867.53;;;7.12;100.00
31761;BME280;18335;51.486;7.562;2024-02-28T09:38:56;100867.31;;;7.04;100.00
31761;BME280;18335;51.486;7.562;2024-02-28T09:41:22;100873.63;;;7.04;100.00
31761;BME280;18335;51.486;7.562;2024-02-28T09:43:52;100869.78;;;7.39;100.00
31761;BME280;18335;51.486;7.562;2024-02-28T09:46:20;100864.06;;;7.21;100.00
31761;BME280;18335;51.486;7.562;2024-02-28T09:48:47;100865.34;;;7.06;100.00
31761;BME280;18335;51.486;7.562;2024-02-28T09:51:18;100866.25;;;7.27;100.00
31761;BME280;18335;51.486;7.562;2024-02-28T09:53:46;100856.91;;;7.52;100.00
31761;BME280;18335;51.486;7.562;2024-02-28T09:56:12;100874.56;;;7.46;100.00
31761;BME280;18335;51.486;7.562;2024-02-28T09:58:39;100863.22;;;7.41;100.00
31761;BME280;18335;51.486;7.562;2024-02-28T10:01:08;100864.06;;;7.73;100.00
31761;BME280;18335;51.486;7.562;2024-02-28T10:03:39;100859.19;;;7.98;100.00
31761;BME280;18335;51.486;7.562;2024-02-28T10:06:08;100855.00;;;8.14;100.00
31761;BME280;18335;51.486;7.562;2024-02-28T10:08:36;100859.47;;;7.95;100.00
31761;BME280;18335;51.486;7.562;2024-02-28T10:11:04;100863.81;;;8.07;100.00
31761;BME280;18335;51.486;7.562;2024-02-28T10:13:31;100863.06;;;8.25;100.00
31761;BME280;18335;51.486;7.562;2024-02-28T10:15:58;100854.91;;;8.46;100.00
31761;BME280;18335;51.486;7.562;2024-02-28T10:18:25;100862.16;;;8.36;100.00
31761;BME280;18335;51.486;7.562;2024-02-28T10:20:52;100858.66;;;8.04;100.00
31761;BME280;18335;51.486;7.562;2024-02-28T10:23:19;100857.59;;;8.16;100.00
31761;BME280;18335;51.486;7.562;2024-02-28T10:25:47;100849.63;;;8.24;100.00
31761;BME280;18335;51.486;7.562;2024-02-28T10:28:14;100850.97;;;8.69;100.00
31761;BME280;18335;51.486;7.562;2024-02-28T10:30:41;100846.03;;;8.44;100.00
31761;BME280;18335;51.486;7.562;2024-02-28T10:33:11;100836.75;;;8.26;100.00
31761;BME280;18335;51.486;7.562;2024-02-28T10:35:39;100849.63;;;8.54;100.00
31761;BME280;18335;51.486;7.562;2024-02-28T10:38:05;100845.38;;;8.31;100.00
31761;BME280;18335;51.486;7.562;2024-02-28T10:40:32;100845.38;;;8.31;100.00
31761;BME280;18335;51.486;7.562;2024-02-28T10:43:00;100850.69;;;8.32;100.00
31761;BME280;18335;51.486;7.562;2024-02-28T10:45:30;100847.03;;;8.22;100.00
31761;BME280;18335;51.486;7.562;2024-02-28T10:47:57;100851.78;;;8.51;100.00
31761;BME280;18335;51.486;7.562;2024-02-28T10:50:24;100860.19;;;8.78;100.00
31761;BME280;18335;51.486;7.562;2024-02-28T10:52:52;100864.59;;;8.79;100.00
31761;BME280;18335;51.486;7.562;2024-02-28T10:55:21;100864.28;;;8.72;100.00
31761;BME280;18335;51.486;7.562;2024-02-28T10:57:54;100868.47;;;8.76;100.00
31761;BME280;18335;51.486;7.562;2024-02-28T11:00:26;100859.59;;;8.74;100.00
31761;BME280;18335;51.486;7.562;2024-02-28T11:02:53;100858.75;;;8.83;100.00
31761;BME280;18335;51.486;7.562;2024-02-28T11:05:20;100856.34;;;9.00;100.00
31761;BME280;18335;51.486;7.562;2024-02-28T11:07:51;100853.59;;;8.80;100.00
31761;BME280;18335;51.486;7.562;2024-02-28T11:10:18;100855.44;;;8.80;100.00
31761;BME280;18335;51.486;7.562;2024-02-28T11:12:54;100855.47;;;8.99;100.00
31761;BME280;18335;51.486;7.562;2024-02-28T11:15:25;100851.34;;;9.24;100.00
31761;BME280;18335;51.486;7.562;2024-02-28T11:17:52;100843.75;;;9.18;100.00
31761;BME280;18335;51.486;7.562;2024-02-28T11:20:19;100845.47;;;9.38;100.00
31761;BME280;18335;51.486;7.562;2024-02-28T11:22:48;100844.31;;;9.50;100.00
31761;BME280;18335;51.486;7.562;2024-02-28T11:25:15;100842.47;;;9.41;100.00
31761;BME280;18335;51.486;7.562;2024-02-28T11:27:46;100841.34;;;9.43;100.00
31761;BME280;18335;51.486;7.562;2024-02-28T11:30:13;100834.59;;;9.48;100.00
31761;BME280;18335;51.486;7.562;2024-02-28T11:32:41;100824.09;;;9.81;100.00
31761;BME280;18335;51.486;7.562;2024-02-28T11:35:08;100822.00;;;10.12;100.00
31761;BME280;18335;51.486;7.562;2024-02-28T11:37:37;100831.84;;;9.76;100.00
31761;BME280;18335;51.486;7.562;2024-02-28T11:40:07;100819.72;;;9.98;100.00
31761;BME280;18335;51.486;7.562;2024-02-28T11:42:35;100819.25;;;10.22;100.00
31761;BME280;18335;51.486;7.562;2024-02-28T11:45:02;100820.00;;;10.14;100.00
31761;BME280;18335;51.486;7.562;2024-02-28T11:47:31;100822.03;;;10.02;100.00
31761;BME280;18335;51.486;7.562;2024-02-28T11:50:00;100813.53;;;10.52;100.00
31761;BME280;18335;51.486;7.562;2024-02-28T11:52:28;100819.44;;;10.01;100.00
31761;BME280;18335;51.486;7.562;2024-02-28T11:54:55;100812.38;;;10.08;100.00
31761;BME280;18335;51.486;7.562;2024-02-28T11:57:21;100807.72;;;10.37;100.00
31761;BME280;18335;51.486;7.562;2024-02-28T11:59:48;100796.09;;;10.35;100.00
31761;BME280;18335;51.486;7.562;2024-02-28T12:02:17;100810.25;;;10.21;100.00
31761;BME280;18335;51.486;7.562;2024-02-28T12:04:44;100804.34;;;10.07;100.00
31761;BME280;18335;51.486;7.562;2024-02-28T12:07:16;100792.41;;;10.27;100.00
31761;BME280;18335;51.486;7.562;2024-02-28T12:09:43;100791.88;;;10.50;100.00
31761;BME280;18335;51.486;7.562;2024-02-28T12:12:12;100788.25;;;10.77;100.00
31761;BME280;18335;51.486;7.562;2024-02-28T12:14:39;100785.22;;;10.80;100.00
31761;BME280;18335;51.486;7.562;2024-02-28T12:17:08;100782.59;;;10.61;100.00
31761;BME280;18335;51.486;7.562;2024-02-28T12:19:35;100786.66;;;10.57;100.00
31761;BME280;18335;51.486;7.562;2024-02-28T12:22:02;100786.38;;;10.23;100.00
31761;BME280;18335;51.486;7.562;2024-02-28T12:24:31;100774.31;;;10.80;100.00
31761;BME280;18335;51.486;7.562;2024-02-28T12:26:57;100770.06;;;10.68;100.00
31761;BME280;18335;51.486;7.562;2024-02-28T12:29:24;100772.47;;;10.53;100.00
31761;BME280;18335;51.486;7.562;2024-02-28T12:31:51;100768.22;;;11.04;100.00
31761;BME280;18335;51.486;7.562;2024-02-28T12:34:17;100761.03;;;10.85;100.00
31761;BME280;18335;51.486;7.562;2024-02-28T12:36:44;100763.84;;;10.93;100.00
31761;BME280;18335;51.486;7.562;2024-02-28T12:39:11;100757.44;;;11.02;100.00
31761;BME280;18335;51.486;7.562;2024-02-28T12:41:39;100751.69;;;11.05;100.00
31761;BME280;18335;51.486;7.562;2024-02-28T12:44:06;100748.72;;;11.17;100.00
31761;BME280;18335;51.486;7.562;2024-02-28T12:46:34;100753.69;;;11.39;100.00
31761;BME280;18335;51.486;7.562;2024-02-28T12:49:01;100743.00;;;11.28;100.00
31761;BME280;18335;51.486;7.562;2024-02-28T12:51:39;100748.56;;;11.00;100.00